• Join FlightAware (Why Join?)
  • Login
  • US Flag 
03:30PM EDT


 

Airport Tracker/Info


-or-


 

Live Flight TrackerFlight Track Log ✈ TCF3476 ✈ 24-Apr-2013 ✈ CYOW - KIAD

Flight Track Log - Related Links

Times and Time Zones

All times are in EDT time to prevent confusion due to time zone crossing. See the TCF3476 flight status page for this flight to view local times or setup timezone preferences in your user account.

Time Position Orientation Groundspeed Altitude Reporting Facility
EDT Latitude Longitude Course Direction KTS MPH feet Rate Location/Type
06:12AM 45.3000 -75.6667 198° South 100 115 400  Level Montreal Center
06:13AM 45.3333 -75.6167 47° Northeast 180 207 2,000 1,740 Climbing Montreal Center
06:14AM 45.3667 -75.5333 60° Northeast 240 276 3,900 2,100 Climbing Montreal Center
06:15AM 44.9935 -75.7308 190° South  Level FlightAware Approximate
06:15AM 45.3167 -75.4667 137° Southeast 230 265 6,200  Level Montreal Center
06:16AM 44.8897 -75.7783 197° South  Level FlightAware Approximate
06:16AM 45.2667 -75.5167 215° Southwest 250 288 8,500  Level Montreal Center
06:17AM 44.7922 -75.8193 193° South  Level FlightAware Approximate
06:17AM 45.2000 -75.5667 208° Southwest 260 299 11,300  Level Montreal Center
06:18AM 44.6944 -75.8581 198° South  Level FlightAware Approximate
06:18AM 45.1333 -75.6167 208° Southwest 310 357 13,000  Level Montreal Center
06:19AM 45.0333 -75.6333 187° South 330 380 15,300 2,340 Climbing Montreal Center
06:20AM 44.9500 -75.6833 203° Southwest 340 391 17,700 2,160 Climbing Montreal Center
06:21AM 44.8500 -75.7167 193° South 350 403 19,700 2,040 Climbing Montreal Center
06:22AM 44.7500 -75.7333 187° South 360 414 21,800 1,980 Climbing Montreal Center
06:23AM 44.6500 -75.7500 187° South 370 426 23,700 1,560 Climbing Montreal Center
06:24AM 44.5500 -75.8000 200° South 380 437 25,000 1,380 Climbing Montreal Center
06:25AM 44.4333 -75.8333 192° South 390 449 26,500 1,140 Climbing Montreal Center
06:26AM 44.3628 -75.8525 191° South 397 457 27,300 720 Climbing Boston Center
06:27AM 44.2386 -75.8917 193° South 412 474 28,000 300 Climbing Boston Center
06:28AM 44.1483 -75.9183 192° South 412 474 28,000  Level Boston Center
06:29AM 44.0136 -75.9594 192° South 412 474 28,000  Level Boston Center
06:30AM 43.9083 -75.9908 192° South 412 474 28,000  Level Boston Center
06:31AM 43.7992 -76.0217 192° South 407 468 28,000  Level Boston Center
06:32AM 43.6897 -76.0553 193° South 407 468 28,000  Level Boston Center
06:33AM 43.5803 -76.0889 193° South 407 468 28,000  Level Boston Center
06:34AM 43.4708 -76.1197 192° South 407 468 28,000  Level Boston Center
06:36AM 43.2333 -76.1833 191° South 400 460 28,000  Level Montreal Center
06:37AM 43.2086 -76.1961 201° Southwest 413 475 28,000  Level Cleveland Center
06:38AM 43.1067 -76.2547 203° Southwest 408 470 28,000  Level Cleveland Center
06:39AM 43.0114 -76.3322 211° Southwest 395 455 28,000  Level Cleveland Center
06:40AM 42.9183 -76.4094 211° Southwest 395 455 28,000  Level Cleveland Center
06:41AM 42.8253 -76.4836 210° Southwest 395 455 28,000  Level Cleveland Center
06:41AM 42.7792 -76.5208 211° Southwest 397 457 28,000  Level New York Center
06:42AM 42.6883 -76.5944 211° Southwest 390 449 28,000  Level New York Center
06:43AM 42.5928 -76.6706 210° Southwest 396 456 28,000  Level New York Center
06:44AM 42.4994 -76.7492 212° Southwest 396 456 28,000  Level New York Center
06:45AM 42.4061 -76.8250 211° Southwest 396 456 28,000  Level New York Center
06:46AM 42.3131 -76.8978 210° Southwest 396 456 28,000  Level New York Center
06:47AM 42.2172 -76.9756 211° Southwest 401 461 28,000  Level New York Center
06:48AM 42.1239 -77.0508 211° Southwest 401 461 28,000  Level New York Center
06:49AM 42.0217 -77.1303 210° Southwest 401 461 28,000  Level New York Center
06:50AM 41.9281 -77.2078 212° Southwest 401 461 28,000  Level New York Center
06:51AM 41.8347 -77.2794 210° Southwest 401 461 28,000  Level New York Center
06:52AM 41.7431 -77.3539 211° Southwest 401 461 28,000  Level New York Center
06:53AM 41.6517 -77.4256 210° Southwest 401 461 28,000  Level New York Center
06:54AM 41.5556 -77.5019 211° Southwest 401 461 28,000 -120 Level New York Center
06:55AM 41.4619 -77.5756 211° Southwest 401 461 27,800 -840 Descending New York Center
06:56AM 41.3681 -77.6464 210° Southwest 401 461 26,400 -1,080 Descending New York Center
06:57AM 41.2786 -77.7175 211° Southwest 401 461 25,700 -720 Descending New York Center
06:58AM 41.1869 -77.7853 209° Southwest 391 450 25,000 -360 Descending New York Center
06:59AM 41.0997 -77.8533 210° Southwest 386 444 25,000  Level New York Center
07:00AM 41.0100 -77.9211 210° Southwest 380 437 25,000 -240 Level New York Center
07:01AM 40.9083 -77.9517 193° South 374 430 24,600 -1,020 Descending New York Center
07:02AM 40.8100 -77.8864 153° Southeast 361 415 23,000 -1,620 Descending New York Center
07:03AM 40.7200 -77.7867 140° Southeast 378 435 21,400 -1,620 Descending New York Center
07:04AM 40.6297 -77.6925 142° Southeast 391 450 19,800 -1,620 Descending New York Center
07:05AM 40.5453 -77.6022 141° Southeast 416 479 18,300 -900 Descending New York Center
07:06AM 40.4511 -77.5028 141° Southeast 421 484 18,000 -960 Descending New York Center
07:08AM 40.2833 -77.3167 140° Southeast 366 421 15,300 -1,380 Descending Potomac TRACON
07:09AM 40.1833 -77.2500 153° Southeast 361 415 13,600 -1,500 Descending Potomac TRACON
07:10AM 40.1167 -77.2500 180° South 321 369 12,300 -1,500 Descending Potomac TRACON
07:11AM 40.0167 -77.2667 187° South 323 372 10,800 -1,260 Descending Potomac TRACON
07:12AM 39.9333 -77.2833 189° South 339 390 10,000 -420 Descending Potomac TRACON
07:13AM 39.8333 -77.3000 187° South 339 390 10,000  Level Potomac TRACON
07:14AM 39.7667 -77.3167 191° South 332 382 10,000  Level Potomac TRACON
07:15AM 39.6833 -77.3333 189° South 279 321 10,000 -360 Level Potomac TRACON
07:16AM 39.6000 -77.3500 189° South 278 320 9,300 -1,020 Descending Potomac TRACON
07:17AM 39.5333 -77.3667 191° South 269 310 8,000 -900 Descending Potomac TRACON
07:18AM 39.4833 -77.4000 207° Southwest 216 249 7,600 -900 Descending Potomac TRACON
07:19AM 39.4167 -77.4167 191° South 207 238 6,400 -1,200 Descending Potomac TRACON
07:20AM 39.3667 -77.4500 207° Southwest 208 239 5,300 -780 Descending Potomac TRACON
07:21AM 39.3167 -77.4500 180° South 210 242 5,000 -180 Descending Potomac TRACON
07:22AM 39.2667 -77.4500 180° South 211 243 5,000  Level Potomac TRACON
07:23AM 39.2000 -77.4500 180° South 214 246 5,000 -540 Level Potomac TRACON
07:24AM 39.1500 -77.4500 180° South 216 249 4,000 -1,320 Descending Potomac TRACON
07:25AM 39.0833 -77.4500 180° South 215 247 2,600 -1,200 Descending Potomac TRACON
07:26AM 39.0333 -77.4500 180° South 168 193 1,500 -900 Descending Potomac TRACON
07:27AM 39.0000 -77.4667 201° Southwest 123 142 800 -780 Descending Potomac TRACON